Time;durP1;ratioP1;P1;durP2;ratioP2;P2;SDS_P1;SDS_P2;PMS_P1;PMS_P2;Temp;Humidity;BMP_temperature;BMP_pressure;BME280_temperature;BME280_humidity;BME280_pressure;Samples;Min_cycle;Max_cycle;Signal;HPM_P1;HPM_P2
2021/11/03 00:01:22;;;;;;;14.48;8.88;;;8.30;97.60;;;5.38;100.00;99105.22;5009543;28;20522;-84
2021/11/03 00:03:51;;;;;;;15.77;9.05;;;8.20;97.40;;;5.34;100.00;99103.94;5009404;28;20069;-84
2021/11/03 00:06:21;;;;;;;19.83;9.98;;;8.20;97.50;;;5.26;100.00;99100.28;5008936;28;20069;-83
2021/11/03 00:08:49;;;;;;;15.85;8.63;;;8.10;97.50;;;5.27;100.00;99095.72;5009181;28;20854;-83
2021/11/03 00:11:17;;;;;;;17.02;9.60;;;8.10;97.60;;;5.25;100.00;99097.78;5009791;28;20675;-83
2021/11/03 00:13:46;;;;;;;19.08;8.75;;;8.10;97.50;;;5.25;100.00;99103.16;5009873;28;20151;-83
2021/11/03 00:16:13;;;;;;;20.20;10.25;;;8.00;97.40;;;5.23;100.00;99100.66;5009638;28;20450;-83
2021/11/03 00:18:40;;;;;;;19.92;9.40;;;8.00;97.50;;;5.22;100.00;99104.38;5009600;28;20048;-83
2021/11/03 00:21:08;;;;;;;17.98;9.32;;;8.00;97.50;;;5.17;100.00;99104.09;5008814;28;20522;-83
2021/11/03 00:23:36;;;;;;;18.35;8.52;;;8.00;97.50;;;5.09;100.00;99105.03;5009985;28;20048;-83
2021/11/03 00:26:04;;;;;;;19.25;9.00;;;7.90;97.40;;;5.06;100.00;99100.00;5009632;28;20104;-84
2021/11/03 00:28:31;;;;;;;15.15;8.38;;;7.90;97.40;;;5.03;100.00;99089.59;5009383;28;20070;-83
2021/11/03 00:31:01;;;;;;;20.73;9.73;;;7.90;97.40;;;5.05;100.00;99092.09;5008184;28;20058;-83
2021/11/03 00:33:32;;;;;;;17.50;8.65;;;7.80;97.40;;;5.07;100.00;99095.44;5023505;28;20057;-83
2021/11/03 00:36:00;;;;;;;15.77;8.60;;;7.80;97.30;;;5.02;100.00;99087.06;5008435;28;20556;-83
2021/11/03 00:38:28;;;;;;;19.20;9.38;;;7.80;97.30;;;5.02;100.00;99087.91;5007615;28;20057;-83
2021/11/03 00:40:56;;;;;;;16.30;9.00;;;7.80;97.40;;;5.02;100.00;99084.38;5008004;28;20046;-83
2021/11/03 00:43:24;;;;;;;17.25;9.55;;;7.80;97.40;;;4.95;100.00;99084.28;5033039;28;20635;-82
2021/11/03 00:45:52;;;;;;;19.30;9.82;;;7.70;97.30;;;4.94;100.00;99090.69;5007603;28;20046;-83
2021/11/03 00:48:22;;;;;;;17.13;8.20;;;7.70;97.40;;;4.92;100.00;99090.03;5005667;28;20505;-83
2021/11/03 00:50:50;;;;;;;16.00;8.77;;;7.70;97.40;;;4.91;100.00;99085.66;5007729;28;20128;-83
2021/11/03 00:53:19;;;;;;;15.93;8.77;;;7.70;97.40;;;4.89;100.00;99090.38;5023905;28;20159;-83
2021/11/03 00:55:46;;;;;;;15.65;9.25;;;7.60;97.40;;;4.88;100.00;99091.44;5008701;28;20077;-83
2021/11/03 00:58:14;;;;;;;18.63;10.27;;;7.60;97.40;;;4.86;100.00;99085.38;5023688;28;20150;-84
2021/11/03 01:00:44;;;;;;;17.70;9.48;;;7.60;97.40;;;4.87;100.00;99084.34;5031974;28;20486;-83
2021/11/03 01:03:11;;;;;;;14.98;8.85;;;7.60;97.40;;;4.84;100.00;99080.16;5007990;28;20132;-83
2021/11/03 01:05:40;;;;;;;17.58;9.32;;;7.60;97.40;;;4.82;100.00;99066.03;5007219;28;20080;-83
2021/11/03 01:08:10;;;;;;;16.60;9.02;;;7.50;97.40;;;4.84;100.00;99069.38;5031262;28;20127;-83
2021/11/03 01:10:39;;;;;;;16.55;9.20;;;7.50;97.50;;;4.81;100.00;99068.91;5009219;28;20042;-83
2021/11/03 01:13:07;;;;;;;18.92;9.40;;;7.50;97.50;;;4.79;100.00;99063.69;5009031;28;20038;-83
2021/11/03 01:15:35;;;;;;;21.50;9.77;;;7.50;97.40;;;4.78;100.00;99064.72;5007189;28;20046;-83
2021/11/03 01:18:03;;;;;;;19.08;9.27;;;7.50;97.60;;;4.77;100.00;99062.22;5022721;28;20050;-83
2021/11/03 01:20:31;;;;;;;14.15;8.30;;;7.50;97.60;;;4.71;100.00;99066.47;5006503;28;20245;-83
2021/11/03 01:23:00;;;;;;;15.02;8.43;;;7.50;97.60;;;4.63;100.00;99070.09;5008201;28;20415;-83
2021/11/03 01:25:28;;;;;;;14.65;8.27;;;7.50;97.50;;;4.62;100.00;99071.09;5008560;28;20070;-83
2021/11/03 01:27:55;;;;;;;16.60;8.50;;;7.40;97.40;;;4.56;100.00;99071.00;5021999;28;20140;-83
2021/11/03 01:30:25;;;;;;;14.73;8.25;;;7.40;97.30;;;4.56;100.00;99081.78;5006826;28;20046;-83
2021/11/03 01:32:55;;;;;;;19.75;9.35;;;7.40;97.30;;;4.56;100.00;99079.09;5007293;28;20049;-83
2021/11/03 01:35:26;;;;;;;17.55;8.55;;;7.40;97.20;;;4.52;100.00;99075.06;5021894;28;20108;-83
2021/11/03 01:37:53;;;;;;;17.15;8.70;;;7.30;97.20;;;4.52;100.00;99080.47;5006680;28;20112;-83
2021/11/03 01:40:29;;;;;;;14.77;8.35;;;7.30;97.10;;;4.52;100.00;99075.91;5008676;28;20126;-83
2021/11/03 01:42:57;;;;;;;14.00;7.88;;;7.30;97.20;;;4.50;100.00;99076.09;4986988;28;20050;-84
2021/11/03 01:45:28;;;;;;;16.15;8.73;;;7.30;97.20;;;4.52;100.00;99081.28;4987452;28;20862;-83
2021/11/03 01:48:00;;;;;;;14.82;8.65;;;7.20;97.30;;;4.50;100.00;99069.88;4986539;28;20050;-83
2021/11/03 01:50:36;;;;;;;17.08;8.18;;;7.20;97.20;;;4.48;100.00;99080.81;4986842;28;20043;-83
2021/11/03 01:53:10;;;;;;;15.82;7.80;;;7.20;97.30;;;4.47;100.00;99081.00;4987379;28;20050;-83
2021/11/03 01:55:46;;;;;;;16.50;8.15;;;7.20;97.20;;;4.49;100.00;99082.50;4988290;28;20073;-83
2021/11/03 01:58:18;;;;;;;14.98;8.35;;;7.10;97.30;;;4.47;100.00;99078.28;4986778;28;20050;-83
2021/11/03 02:00:49;;;;;;;17.65;8.13;;;7.20;97.30;;;4.49;100.00;99076.25;4987393;28;20050;-83
2021/11/03 02:03:21;;;;;;;16.30;8.77;;;7.10;97.40;;;4.38;100.00;99069.47;4987018;28;20051;-83
2021/11/03 02:05:54;;;;;;;14.10;8.07;;;7.10;97.40;;;4.36;100.00;99070.63;4982036;28;20137;-83
2021/11/03 02:08:22;;;;;;;20.08;8.52;;;7.10;97.40;;;4.33;100.00;99060.25;4986418;28;20060;-83
2021/11/03 02:10:51;;;;;;;15.50;7.50;;;7.10;97.40;;;4.30;100.00;99062.28;4986933;28;20073;-83
2021/11/03 02:13:18;;;;;;;14.75;7.95;;;7.00;97.30;;;4.31;100.00;99053.16;4987818;28;20038;-83
2021/11/03 02:15:47;;;;;;;13.77;7.88;;;7.00;97.30;;;4.29;100.00;99054.38;4986881;28;20558;-83
2021/11/03 02:18:18;;;;;;;15.20;7.85;;;7.00;97.20;;;4.25;100.00;99048.50;4986361;28;20751;-83
2021/11/03 02:20:49;;;;;;;14.98;8.57;;;7.00;97.40;;;4.23;100.00;99045.16;4986100;28;20042;-83
2021/11/03 02:23:26;;;;;;;16.33;8.30;;;7.00;97.30;;;4.28;100.00;99042.78;4986592;28;20376;-83
2021/11/03 02:26:02;;;;;;;13.18;7.47;;;7.00;97.30;;;4.29;100.00;99039.06;5002410;28;20165;-83
2021/11/03 02:28:31;;;;;;;15.25;7.72;;;7.00;97.40;;;4.34;100.00;99037.66;4985669;28;20053;-83
2021/11/03 02:30:59;;;;;;;16.38;8.32;;;7.00;97.40;;;4.32;100.00;99037.84;4987905;28;20050;-83
2021/11/03 02:33:29;;;;;;;17.10;8.70;;;7.00;97.40;;;4.33;100.00;99033.31;4986763;28;20050;-83
2021/11/03 02:36:00;;;;;;;20.10;8.68;;;7.00;97.40;;;4.33;100.00;99030.63;4988003;28;20124;-83
2021/11/03 02:38:34;;;;;;;17.13;8.98;;;6.90;97.50;;;4.33;100.00;99030.63;4989615;28;20058;-83
2021/11/03 02:41:10;;;;;;;15.55;8.35;;;6.90;97.60;;;4.37;100.00;99018.47;4989081;28;20097;-83
2021/11/03 02:43:42;;;;;;;17.38;9.25;;;6.90;97.60;;;4.37;100.00;99016.59;5005668;28;20050;-83
2021/11/03 02:46:12;;;;;;;15.55;8.80;;;6.90;97.60;;;4.38;100.00;99015.59;4990584;28;20046;-83
2021/11/03 02:48:41;;;;;;;14.00;8.30;;;6.90;97.70;;;4.37;100.00;99013.91;4990183;28;20584;-83
2021/11/03 02:51:14;;;;;;;15.40;7.88;;;6.90;97.70;;;4.39;100.00;99021.81;4990868;28;20055;-83
2021/11/03 02:53:47;;;;;;;21.40;8.43;;;6.90;97.80;;;4.37;100.00;99016.59;4990258;28;20049;-83
2021/11/03 02:56:18;;;;;;;18.88;8.65;;;6.90;97.70;;;4.38;100.00;99020.13;4990235;28;20164;-83
2021/11/03 02:58:47;;;;;;;12.90;8.15;;;6.90;97.80;;;4.35;100.00;99009.72;5014457;28;20137;-83
2021/11/03 03:01:20;;;;;;;19.00;8.07;;;6.90;97.70;;;4.34;100.00;99014.28;4990327;28;20046;-83
2021/11/03 03:03:48;;;;;;;17.92;8.75;;;7.10;97.90;;;4.40;100.00;99023.47;4990608;28;20504;-83
2021/11/03 03:06:24;;;;;;;16.08;8.40;;;7.00;97.80;;;4.34;100.00;99011.59;4990169;28;20058;-83
2021/11/03 03:08:54;;;;;;;16.65;8.60;;;6.90;97.80;;;4.34;100.00;99018.81;5005149;28;20065;-83
2021/11/03 03:11:25;;;;;;;18.40;8.57;;;7.00;97.70;;;4.30;100.00;99018.34;5013828;28;20050;-83
2021/11/03 03:13:53;;;;;;;15.70;9.15;;;6.90;97.70;;;4.26;100.00;99017.84;5014216;28;20053;-83
2021/11/03 03:16:22;;;;;;;13.85;7.93;;;6.90;97.70;;;4.23;100.00;99018.25;4990166;28;20042;-83
2021/11/03 03:18:50;;;;;;;15.75;8.35;;;6.90;97.70;;;4.18;100.00;99020.63;4989557;28;20132;-83
2021/11/03 03:21:21;;;;;;;23.02;8.05;;;6.90;97.60;;;4.14;100.00;99011.25;4989696;28;20053;-83
2021/11/03 03:23:50;;;;;;;18.00;8.93;;;6.80;97.50;;;4.11;100.00;99019.66;5014348;28;20050;-83
2021/11/03 03:26:23;;;;;;;13.57;8.07;;;6.80;97.50;;;4.14;100.00;99015.78;4989576;28;20130;-83
2021/11/03 03:28:53;;;;;;;15.02;8.20;;;6.80;97.50;;;4.13;100.00;99006.84;4988910;28;20051;-83
2021/11/03 03:31:22;;;;;;;18.33;9.13;;;6.80;97.40;;;4.11;100.00;99003.50;5005922;28;20054;-83
2021/11/03 03:33:53;;;;;;;16.75;8.77;;;6.80;97.50;;;4.13;100.00;99009.53;4990434;28;20058;-83
2021/11/03 03:36:23;;;;;;;13.25;8.02;;;6.80;97.50;;;4.11;100.00;99012.44;4990077;28;20049;-83
2021/11/03 03:38:51;;;;;;;14.85;8.38;;;6.80;97.60;;;4.05;100.00;99013.16;4988662;28;20050;-84
2021/11/03 03:41:23;;;;;;;18.52;9.10;;;6.80;97.50;;;4.04;100.00;99024.13;4989771;28;20038;-83
2021/11/03 03:43:51;;;;;;;13.98;7.90;;;6.70;97.50;;;4.01;100.00;99025.28;4989440;28;20050;-83
2021/11/03 03:46:19;;;;;;;17.58;8.35;;;6.70;97.40;;;4.02;100.00;99023.47;5013297;28;20039;-83
2021/11/03 03:48:47;;;;;;;17.13;8.40;;;6.70;97.50;;;4.06;100.00;99028.28;4988151;28;20639;-83
2021/11/03 03:51:15;;;;;;;17.90;8.20;;;6.70;97.60;;;4.03;100.00;99035.88;5013188;28;20124;-83
2021/11/03 03:53:44;;;;;;;15.68;9.15;;;6.70;97.60;;;4.05;100.00;99036.53;4989454;28;20042;-83
2021/11/03 03:56:17;;;;;;;15.07;8.55;;;6.70;97.70;;;4.03;100.00;99030.50;4989644;28;20113;-83
2021/11/03 03:58:48;;;;;;;16.60;8.47;;;6.70;97.70;;;4.05;100.00;99044.63;5005413;28;20529;-83
2021/11/03 04:01:20;;;;;;;16.63;8.95;;;6.70;97.80;;;4.05;100.00;99042.75;4981766;28;20069;-83
2021/11/03 04:03:48;;;;;;;17.48;8.93;;;6.70;97.80;;;4.12;100.00;99037.50;5012152;28;20533;-82
2021/11/03 04:06:17;;;;;;;15.35;8.48;;;6.70;97.80;;;4.16;100.00;99038.81;4988556;28;20125;-83
2021/11/03 04:08:45;;;;;;;15.10;8.27;;;6.70;97.90;;;4.13;100.00;99041.84;5012125;28;20149;-83
2021/11/03 04:11:13;;;;;;;14.80;8.45;;;6.70;98.00;;;4.18;100.00;99050.25;4988900;28;20109;-83
2021/11/03 04:13:42;;;;;;;16.73;9.18;;;6.70;98.00;;;4.22;100.00;99048.84;4989461;28;20097;-83
2021/11/03 04:16:11;;;;;;;13.68;8.05;;;6.70;98.10;;;4.20;100.00;99056.28;4989053;28;20069;-83
2021/11/03 04:18:39;;;;;;;17.50;8.50;;;6.70;98.10;;;4.25;100.00;99051.22;5004118;28;20141;-83
2021/11/03 04:21:08;;;;;;;15.20;8.07;;;6.70;98.20;;;4.23;100.00;99053.25;5004548;28;20043;-82
2021/11/03 04:23:36;;;;;;;17.98;9.70;;;6.70;98.30;;;4.24;100.00;99054.91;5004662;28;20062;-83
2021/11/03 04:26:05;;;;;;;20.30;9.30;;;6.70;98.30;;;4.28;100.00;99058.94;4980789;28;20137;-83
2021/11/03 04:28:34;;;;;;;21.40;10.50;;;6.70;98.40;;;4.27;100.00;99059.09;5004405;28;20054;-83
2021/11/03 04:31:02;;;;;;;17.08;9.48;;;6.70;98.40;;;4.26;100.00;99058.25;4988819;28;20129;-83
2021/11/03 04:33:32;;;;;;;17.13;9.25;;;6.80;98.50;;;4.24;100.00;99062.97;4987861;28;20129;-83
2021/11/03 04:35:59;;;;;;;20.85;9.65;;;6.80;98.40;;;4.27;100.00;99062.63;4987549;28;20058;-83
2021/11/03 04:38:27;;;;;;;14.43;8.63;;;6.80;98.40;;;4.29;100.00;99055.22;4987381;28;20074;-83
2021/11/03 04:40:55;;;;;;;18.17;9.10;;;6.80;98.50;;;4.41;100.00;99060.16;4989439;28;20774;-83
2021/11/03 04:43:22;;;;;;;19.83;9.45;;;6.80;98.50;;;4.43;100.00;99071.59;5004487;28;20048;-83
2021/11/03 04:45:49;;;;;;;16.90;9.77;;;6.80;98.70;;;4.42;100.00;99065.38;4988980;28;20054;-83
2021/11/03 04:48:17;;;;;;;21.10;10.15;;;6.80;98.80;;;4.45;100.00;99062.31;4988545;28;20056;-83
2021/11/03 04:50:45;;;;;;;19.90;9.73;;;6.80;98.90;;;4.50;100.00;99059.91;4988774;28;20126;-83
2021/11/03 04:53:13;;;;;;;18.17;10.15;;;6.80;99.00;;;4.56;100.00;99069.13;5004742;28;20500;-83
2021/11/03 04:55:45;;;;;;;17.40;9.98;;;6.90;99.10;;;4.58;100.00;99061.69;5013207;28;20127;-82
2021/11/03 04:58:13;;;;;;;20.42;10.55;;;6.90;99.10;;;4.61;100.00;99061.34;4986243;28;20153;-83
2021/11/03 05:00:46;;;;;;;22.85;9.88;;;7.00;99.10;;;4.60;100.00;99056.13;4988414;28;20090;-83
2021/11/03 05:03:15;;;;;;;17.65;9.70;;;6.90;99.20;;;4.55;100.00;99054.00;4996079;28;20499;-83
2021/11/03 05:05:43;;;;;;;21.05;10.23;;;7.00;99.10;;;4.55;100.00;99042.38;4986644;28;20138;-82
2021/11/03 05:08:13;;;;;;;24.88;10.90;;;7.00;99.20;;;4.60;100.00;99040.81;4978943;28;20141;-83
2021/11/03 05:10:41;;;;;;;22.38;10.95;;;7.00;99.20;;;4.58;100.00;99045.53;4987748;28;20046;-83
2021/11/03 05:13:08;;;;;;;16.83;9.63;;;7.00;99.20;;;4.53;100.00;99049.78;4987382;28;20442;-83
2021/11/03 05:15:36;;;;;;;20.80;10.20;;;7.00;99.10;;;4.54;100.00;99052.31;5004245;28;20038;-83
2021/11/03 05:18:04;;;;;;;18.85;10.35;;;7.00;99.10;;;4.56;100.00;99044.06;5011154;28;20050;-83
2021/11/03 05:20:31;;;;;;;16.17;9.73;;;7.00;99.00;;;4.61;100.00;99045.19;4987052;28;20057;-83
2021/11/03 05:22:59;;;;;;;17.50;10.13;;;7.00;99.10;;;4.69;100.00;99037.00;4987812;28;20104;-83
2021/11/03 05:25:28;;;;;;;19.75;10.00;;;7.00;99.30;;;4.64;100.00;99036.72;5003780;28;20467;-83
2021/11/03 05:27:57;;;;;;;17.38;9.68;;;7.00;99.30;;;4.65;100.00;99043.78;4988104;28;20045;-83
2021/11/03 05:30:28;;;;;;;14.20;8.55;;;7.00;99.30;;;4.73;100.00;99036.66;4989393;28;20038;-83
2021/11/03 05:32:57;;;;;;;17.02;10.18;;;7.00;99.30;;;4.78;100.00;99023.44;4987625;28;20046;-83
2021/11/03 05:35:25;;;;;;;14.38;8.48;;;7.10;99.40;;;4.78;100.00;99036.94;4988987;28;20398;-85
2021/11/03 05:37:53;;;;;;;19.02;9.68;;;7.10;99.50;;;4.76;100.00;99028.19;4988408;28;20074;-84
2021/11/03 05:40:25;;;;;;;18.23;9.80;;;7.00;99.40;;;4.75;100.00;99031.91;4989192;28;20057;-83
2021/11/03 05:42:55;;;;;;;18.63;9.50;;;7.10;99.40;;;4.75;100.00;99021.16;4987366;28;20054;-82
2021/11/03 05:45:23;;;;;;;16.83;9.23;;;7.10;99.40;;;4.70;100.00;99025.22;4988465;28;20146;-83
2021/11/03 05:47:51;;;;;;;17.73;9.68;;;7.10;99.40;;;4.70;100.00;99025.22;4988165;28;20046;-82
2021/11/03 05:50:22;;;;;;;17.40;9.35;;;7.10;99.40;;;4.74;100.00;99027.53;4987364;28;20056;-82
2021/11/03 05:52:50;;;;;;;17.67;8.73;;;7.10;99.40;;;4.75;100.00;99030.06;4988780;28;20117;-82
2021/11/03 05:55:17;;;;;;;21.73;9.13;;;7.10;99.40;;;4.76;100.00;99038.97;4986670;28;20156;-82
2021/11/03 05:57:45;;;;;;;16.65;9.25;;;7.10;99.40;;;4.73;100.00;99031.28;4988107;28;20137;-83
2021/11/03 06:00:20;;;;;;;18.98;9.32;;;7.10;99.40;;;4.71;100.00;99034.16;4988461;28;20545;-82
2021/11/03 06:02:48;;;;;;;18.20;9.27;;;7.10;99.40;;;4.71;100.00;99036.84;4987536;28;20133;-82
2021/11/03 06:05:15;;;;;;;17.45;8.85;;;7.10;99.40;;;4.66;100.00;99040.09;4987101;28;20077;-83
2021/11/03 06:07:50;;;;;;;16.65;9.70;;;7.10;99.50;;;4.66;100.00;99041.94;4988211;28;20038;-82
2021/11/03 06:10:24;;;;;;;17.23;8.95;;;7.20;99.40;;;4.73;100.00;99039.34;4991000;28;20085;-83
2021/11/03 06:12:52;;;;;;;16.98;9.05;;;7.10;99.40;;;4.72;100.00;99048.44;4992506;28;20133;-83
2021/11/03 06:15:22;;;;;;;19.80;9.40;;;7.10;99.50;;;4.74;100.00;99043.72;4992549;28;20081;-84
2021/11/03 06:17:50;;;;;;;16.65;8.75;;;7.10;99.40;;;4.76;100.00;99044.34;5004617;28;20046;-85
2021/11/03 06:20:18;;;;;;;16.80;8.68;;;7.10;99.50;;;4.74;100.00;99041.88;4991150;28;20081;-84
2021/11/03 06:22:45;;;;;;;17.17;9.10;;;7.10;99.60;;;4.72;100.00;99040.34;4990968;28;20077;-85
2021/11/03 06:25:19;;;;;;;17.75;9.07;;;7.10;99.60;;;4.64;100.00;99042.09;4992071;28;20078;-85
2021/11/03 06:27:47;;;;;;;17.42;9.80;;;7.10;99.50;;;4.66;100.00;99039.25;4990235;28;20038;-86
2021/11/03 06:30:18;;;;;;;18.75;10.57;;;7.10;99.60;;;4.70;100.00;99036.00;4990121;28;20082;-86
2021/11/03 06:32:47;;;;;;;15.02;9.10;;;7.10;99.70;;;4.79;100.00;99030.53;4957700;28;20034;-85
2021/11/03 06:35:15;;;;;;;18.60;9.68;;;7.10;99.70;;;4.81;100.00;99032.00;4988749;28;20132;-86
2021/11/03 06:37:43;;;;;;;14.48;8.90;;;7.10;99.70;;;4.82;100.00;99030.16;5005151;28;20593;-85
2021/11/03 06:40:17;;;;;;;26.52;9.57;;;7.20;99.70;;;4.84;100.00;99031.66;4992469;28;20518;-85
2021/11/03 06:43:02;;;;;;;17.85;10.02;;;7.20;99.70;;;4.86;100.00;99039.56;4991864;28;20073;-87
2021/11/03 06:45:30;;;;;;;18.52;9.63;;;7.20;99.80;;;4.84;100.00;99039.75;5006253;28;20056;-84
2021/11/03 06:47:59;;;;;;;19.02;10.20;;;7.20;99.70;;;4.87;100.00;99039.38;4991458;28;20042;-85
2021/11/03 06:50:33;;;;;;;23.60;10.80;;;7.20;99.80;;;4.85;100.00;99043.25;4990708;28;20113;-84
2021/11/03 06:53:03;;;;;;;19.17;10.48;;;7.20;99.70;;;4.87;100.00;99036.69;4988434;28;20042;-84
2021/11/03 06:55:32;;;;;;;19.20;9.80;;;7.20;99.80;;;4.87;100.00;99052.00;4990688;28;20093;-84
2021/11/03 06:58:00;;;;;;;18.30;9.82;;;7.20;99.90;;;4.88;100.00;99045.59;4989873;28;20049;-84
2021/11/03 07:00:34;;;;;;;18.90;9.55;;;7.20;99.90;;;4.86;100.00;99047.66;4991838;28;20048;-85
2021/11/03 07:03:03;;;;;;;17.77;10.13;;;7.20;99.90;;;4.87;100.00;99046.59;4990303;28;20470;-84
2021/11/03 07:05:33;;;;;;;16.88;9.85;;;7.20;99.90;;;4.89;100.00;99047.25;4991362;28;20102;-85
2021/11/03 07:08:01;;;;;;;17.77;10.27;;;7.20;99.90;;;4.95;100.00;99048.38;4988950;28;20046;-85
2021/11/03 07:10:32;;;;;;;19.55;10.10;;;7.30;99.90;;;4.99;100.00;99050.53;4991376;28;20046;-85
2021/11/03 07:12:59;;;;;;;;;;;7.30;99.90;;;5.00;100.00;99052.19;4991639;28;20113;-84
2021/11/03 07:15:28;;;;;;;20.67;9.68;;;7.30;99.90;;;4.98;100.00;99039.94;4991205;28;20023;-82
2021/11/03 07:17:55;;;;;;;23.15;10.43;;;7.30;99.90;;;5.02;100.00;99033.97;4990702;28;20105;-83
2021/11/03 07:20:25;;;;;;;20.92;11.35;;;7.30;99.90;;;5.11;100.00;99031.22;4991470;28;20092;-83
2021/11/03 07:22:52;;;;;;;18.05;9.95;;;7.30;99.90;;;5.15;100.00;99035.19;4990411;28;20053;-83
2021/11/03 07:25:24;;;;;;;20.50;11.05;;;7.40;99.90;;;5.21;100.00;99039.84;4991248;28;20657;-83
2021/11/03 07:27:54;;;;;;;18.10;10.73;;;7.40;99.90;;;5.21;100.00;99056.03;4990101;28;20395;-83
2021/11/03 07:30:26;;;;;;;22.33;10.82;;;7.40;99.90;;;5.18;100.00;99040.19;4990656;28;20112;-83
2021/11/03 07:32:54;;;;;;;17.60;11.07;;;7.40;99.90;;;5.26;100.00;99034.75;4991113;28;20050;-83
2021/11/03 07:35:21;;;;;;;23.77;11.60;;;7.40;99.90;;;5.24;100.00;99031.38;4989474;28;20043;-83
2021/11/03 07:37:50;;;;;;;23.60;11.27;;;7.50;99.90;;;5.26;100.00;99027.47;4989484;28;20109;-84
2021/11/03 07:40:21;;;;;;;22.13;12.80;;;7.50;99.90;;;5.23;100.00;99032.41;4989224;28;20562;-84
2021/11/03 07:42:49;;;;;;;20.30;10.98;;;7.50;99.90;;;5.26;100.00;99032.03;4990674;28;20048;-83
2021/11/03 07:45:17;;;;;;;22.00;11.95;;;7.50;99.90;;;5.29;100.00;99034.34;4990610;28;20042;-83
2021/11/03 07:47:45;;;;;;;20.30;11.20;;;7.50;99.90;;;5.38;100.00;99029.69;4990289;28;20068;-85
2021/11/03 07:50:21;;;;;;;18.08;10.65;;;7.60;99.90;;;5.47;100.00;99032.09;4989786;28;20104;-83
2021/11/03 07:52:51;;;;;;;22.92;12.40;;;7.60;99.90;;;5.52;100.00;99030.69;4990012;28;20053;-83
2021/11/03 07:55:18;;;;;;;25.30;10.93;;;7.60;99.90;;;5.57;100.00;99036.38;4990347;28;20125;-83
2021/11/03 07:57:46;;;;;;;23.13;11.75;;;7.60;99.90;;;5.58;100.00;99033.50;4989837;28;20077;-83
2021/11/03 08:00:23;;;;;;;23.38;11.68;;;7.70;99.90;;;5.60;100.00;99036.84;4990231;28;20061;-83
2021/11/03 08:02:51;;;;;;;22.10;11.40;;;7.70;99.90;;;5.64;100.00;99043.53;4990477;28;20077;-83
2021/11/03 08:05:19;;;;;;;24.60;12.57;;;7.70;99.90;;;5.66;100.00;99037.94;5013178;28;20120;-83
2021/11/03 08:07:46;;;;;;;20.25;11.15;;;7.80;99.90;;;5.70;100.00;99031.13;4980229;28;20125;-83
2021/11/03 08:10:19;;;;;;;21.08;11.40;;;7.80;99.90;;;5.75;100.00;99044.03;4987955;28;20105;-84
2021/11/03 08:12:47;;;;;;;22.40;11.27;;;7.80;99.90;;;5.79;100.00;99051.59;4984304;28;20495;-84
2021/11/03 08:15:15;;;;;;;23.90;11.32;;;7.90;99.90;;;5.80;100.00;99047.03;4984254;28;20165;-84
2021/11/03 08:17:43;;;;;;;19.48;10.05;;;7.90;99.90;;;5.86;100.00;99047.13;4979713;28;20042;-84
2021/11/03 08:20:22;;;;;;;19.65;11.65;;;7.90;99.90;;;5.92;100.00;99055.47;4987037;28;20716;-83
2021/11/03 08:22:50;;;;;;;23.85;12.00;;;7.90;99.90;;;5.95;100.00;99053.25;5001873;28;20411;-83
2021/11/03 08:25:19;;;;;;;21.63;11.98;;;8.00;99.90;;;5.99;100.00;99051.84;4987417;28;20054;-83
2021/11/03 08:27:46;;;;;;;18.75;11.00;;;8.00;99.90;;;6.04;100.00;99051.28;4986573;28;20075;-83
2021/11/03 08:30:16;;;;;;;20.23;11.23;;;8.10;99.90;;;6.09;100.00;99051.50;4984949;28;20525;-84
2021/11/03 08:32:49;;;;;;;22.88;11.50;;;8.00;99.90;;;6.12;100.00;99055.72;4986504;28;20140;-84
2021/11/03 08:35:20;;;;;;;19.20;11.40;;;8.10;99.90;;;6.20;100.00;99059.13;4987961;28;20109;-84
2021/11/03 08:37:48;;;;;;;27.15;12.38;;;8.10;99.90;;;6.15;100.00;99056.16;4988175;28;20097;-84
2021/11/03 08:40:21;;;;;;;22.38;11.38;;;8.20;99.90;;;6.20;100.00;99064.50;5011823;28;20053;-84
2021/11/03 08:42:49;;;;;;;21.52;12.45;;;8.20;99.90;;;6.27;100.00;99059.19;4987807;28;20061;-85
2021/11/03 08:45:18;;;;;;;23.45;11.65;;;8.20;99.90;;;6.34;100.00;99064.66;4987426;28;20070;-85
2021/11/03 08:47:46;;;;;;;21.75;11.77;;;8.20;99.90;;;6.41;100.00;99060.16;4987257;28;20499;-84
2021/11/03 08:50:24;;;;;;;22.75;12.25;;;8.30;99.90;;;6.47;100.00;99056.66;4987395;28;20046;-88
2021/11/03 08:52:52;;;;;;;21.55;12.05;;;8.30;99.90;;;6.53;100.00;99058.63;4984671;28;20129;-81
2021/11/03 08:55:23;;;;;;;23.75;12.50;;;8.40;99.90;;;6.54;100.00;99059.44;4987709;28;20113;-81
2021/11/03 08:57:51;;;;;;;24.52;13.30;;;8.40;99.90;;;6.55;100.00;99067.34;4986193;28;20065;-81
2021/11/03 09:00:22;;;;;;;23.98;12.45;;;8.40;99.90;;;6.59;100.00;99065.94;4989247;28;20104;-82
2021/11/03 09:02:50;;;;;;;25.60;13.57;;;8.50;99.90;;;6.64;100.00;99060.78;4986920;28;20054;-81
2021/11/03 09:05:18;;;;;;;26.10;12.13;;;8.50;99.90;;;6.68;100.00;99068.50;4987376;28;20046;-82
2021/11/03 09:07:45;;;;;;;25.30;13.00;;;8.50;99.90;;;6.78;100.00;99069.00;4988063;28;20038;-82
2021/11/03 09:10:17;;;;;;;24.63;14.13;;;8.60;99.90;;;6.79;100.00;99062.56;4987522;28;20581;-82
2021/11/03 09:12:47;;;;;;;37.00;14.13;;;8.60;99.90;;;6.84;100.00;99065.50;4987279;28;20578;-82
2021/11/03 09:15:17;;;;;;;23.00;12.65;;;8.60;99.90;;;6.87;100.00;99056.16;4985201;28;20054;-82
2021/11/03 09:17:45;;;;;;;24.23;12.68;;;8.70;99.90;;;6.88;100.00;99069.50;4986743;28;20112;-82
2021/11/03 09:20:16;;;;;;;24.13;12.80;;;8.70;99.90;;;6.91;100.00;99055.59;4988867;28;20054;-82
2021/11/03 09:22:44;;;;;;;25.52;13.35;;;8.70;99.90;;;6.94;100.00;99055.19;4987843;28;20499;-82
2021/11/03 09:25:17;;;;;;;26.85;14.35;;;8.80;99.90;;;7.00;100.00;99050.84;4988443;28;20097;-82
2021/11/03 09:27:47;;;;;;;28.73;14.70;;;8.80;99.90;;;7.03;100.00;99045.88;4986554;28;20038;-82
2021/11/03 09:30:19;;;;;;;27.57;14.77;;;8.80;99.90;;;7.04;100.00;99039.44;4983405;28;20057;-82
2021/11/03 09:32:53;;;;;;;27.90;13.80;;;8.80;99.90;;;7.02;100.00;99041.50;4984821;28;20513;-82
2021/11/03 09:35:24;;;;;;;27.95;14.07;;;8.90;99.90;;;7.07;100.00;99048.22;4988488;28;20108;-80
2021/11/03 09:37:51;;;;;;;28.58;14.77;;;8.90;99.90;;;7.07;100.00;99049.03;4983755;28;20042;-80
2021/11/03 09:40:25;;;;;;;26.30;15.35;;;8.90;99.90;;;7.11;100.00;99046.78;4983714;28;20129;-80
2021/11/03 09:42:55;;;;;;;33.70;16.35;;;8.90;99.90;;;7.10;100.00;99051.34;4984830;28;20491;-80
2021/11/03 09:45:26;;;;;;;30.25;15.60;;;8.90;99.90;;;7.14;100.00;99049.06;4984882;28;20057;-80
2021/11/03 09:48:04;;;;;;;28.23;15.73;;;9.00;99.90;;;7.17;100.00;99054.09;4986129;28;20061;-80
2021/11/03 09:50:37;;;;;;;28.13;15.02;;;9.00;99.90;;;7.23;100.00;99048.72;4986082;28;20112;-81
2021/11/03 09:53:28;;;;;;;27.27;14.77;;;9.00;99.90;;;7.22;100.00;99051.63;5003249;28;20046;-81
2021/11/03 09:55:57;;;;;;;28.25;14.98;;;9.00;99.90;;;7.27;100.00;99035.59;4986007;28;20440;-81
2021/11/03 09:59:05;;;;;;;24.73;14.27;;;9.00;99.90;;;7.29;100.00;99040.81;4983511;28;20177;-81
2021/11/03 10:01:47;;;;;;;33.75;14.82;;;9.10;99.90;;;7.24;100.00;99049.56;4987950;28;20122;-80
2021/11/03 10:04:48;;;;;;;29.38;15.60;;;9.20;99.90;;;7.28;100.00;99040.00;4987211;28;20411;-79
2021/11/03 10:07:29;;;;;;;;;;;9.20;99.90;;;7.34;100.00;99041.91;4988569;28;20112;-83
2021/11/03 10:09:57;;;;;;;26.98;15.40;;;9.10;99.90;;;7.33;100.00;99040.25;4987504;28;20402;-83
2021/11/03 10:12:25;;;;;;;29.58;14.95;;;9.20;99.90;;;7.36;100.00;99041.69;4986905;28;20138;-84
2021/11/03 10:14:57;;;;;;;29.33;14.20;;;9.20;99.90;;;7.38;100.00;99042.34;4987085;28;20117;-86
2021/11/03 10:17:27;;;;;;;29.65;14.75;;;9.10;99.90;;;7.38;100.00;99042.34;4987794;28;20603;-86
2021/11/03 10:19:56;;;;;;;31.40;15.33;;;9.10;99.90;;;7.38;100.00;99029.63;4987916;28;20133;-85
2021/11/03 10:22:38;;;;;;;28.23;15.52;;;9.10;99.90;;;7.48;100.00;99033.84;4987997;28;20070;-87
2021/11/03 10:25:23;;;;;;;30.80;15.95;;;9.20;99.90;;;7.53;100.00;99018.66;5000398;28;20043;-86
2021/11/03 10:27:57;;;;;;;29.42;14.13;;;9.20;99.90;;;7.53;100.00;99021.38;4984947;28;20418;-86
2021/11/03 10:30:34;;;;;;;29.75;15.50;;;9.30;99.90;;;7.50;100.00;99029.06;4988152;28;20050;-87